sensor_id;sensor_type;location;lat;lon;timestamp;pressure;altitude;pressure_sealevel;temperature
72336;BMP280;62171;48.446;8.834;2022-09-16T00:00:24;97070.31;;;11.82
72336;BMP280;62171;48.446;8.834;2022-09-16T00:02:52;97063.13;;;11.86
72336;BMP280;62171;48.446;8.834;2022-09-16T00:05:19;97058.34;;;11.84
72336;BMP280;62171;48.446;8.834;2022-09-16T00:07:44;97059.06;;;11.85
72336;BMP280;62171;48.446;8.834;2022-09-16T00:10:10;97058.25;;;11.88
72336;BMP280;62171;48.446;8.834;2022-09-16T00:12:35;97058.56;;;11.90
72336;BMP280;62171;48.446;8.834;2022-09-16T00:15:01;97059.22;;;11.94
72336;BMP280;62171;48.446;8.834;2022-09-16T00:17:27;97054.81;;;11.91
72336;BMP280;62171;48.446;8.834;2022-09-16T00:19:54;97044.09;;;11.89
72336;BMP280;62171;48.446;8.834;2022-09-16T00:22:20;97045.84;;;11.92
72336;BMP280;62171;48.446;8.834;2022-09-16T00:24:47;97048.13;;;11.90
72336;BMP280;62171;48.446;8.834;2022-09-16T00:27:13;97047.34;;;11.93
72336;BMP280;62171;48.446;8.834;2022-09-16T00:29:38;97048.81;;;11.94
72336;BMP280;62171;48.446;8.834;2022-09-16T00:32:04;97059.28;;;11.90
72336;BMP280;62171;48.446;8.834;2022-09-16T00:34:29;97053.44;;;11.86
72336;BMP280;62171;48.446;8.834;2022-09-16T00:36:55;97057.31;;;11.82
72336;BMP280;62171;48.446;8.834;2022-09-16T00:39:20;97045.75;;;11.67
72336;BMP280;62171;48.446;8.834;2022-09-16T00:41:45;97050.38;;;11.59
72336;BMP280;62171;48.446;8.834;2022-09-16T00:47:19;97047.06;;;11.59
72336;BMP280;62171;48.446;8.834;2022-09-16T00:49:45;97052.59;;;11.61
72336;BMP280;62171;48.446;8.834;2022-09-16T00:52:11;97055.59;;;11.59
72336;BMP280;62171;48.446;8.834;2022-09-16T00:54:38;97050.53;;;11.68
72336;BMP280;62171;48.446;8.834;2022-09-16T00:57:06;97054.94;;;11.71
72336;BMP280;62171;48.446;8.834;2022-09-16T00:59:35;97051.53;;;11.74
72336;BMP280;62171;48.446;8.834;2022-09-16T01:02:10;97055.34;;;11.70
72336;BMP280;62171;48.446;8.834;2022-09-16T01:04:46;97050.69;;;11.61
72336;BMP280;62171;48.446;8.834;2022-09-16T01:07:13;97050.69;;;11.77
72336;BMP280;62171;48.446;8.834;2022-09-16T01:09:39;97050.03;;;11.73
72336;BMP280;62171;48.446;8.834;2022-09-16T01:12:05;97045.75;;;11.67
72336;BMP280;62171;48.446;8.834;2022-09-16T01:14:30;97044.34;;;11.62
72336;BMP280;62171;48.446;8.834;2022-09-16T01:33:59;97044.28;;;11.66
72336;BMP280;62171;48.446;8.834;2022-09-16T01:42:03;97038.72;;;11.64
72336;BMP280;62171;48.446;8.834;2022-09-16T01:44:38;97039.09;;;11.66
72336;BMP280;62171;48.446;8.834;2022-09-16T01:50:02;97026.72;;;11.70
72336;BMP280;62171;48.446;8.834;2022-09-16T01:55:14;97041.47;;;11.60
72336;BMP280;62171;48.446;8.834;2022-09-16T02:00:13;97036.13;;;11.64
72336;BMP280;62171;48.446;8.834;2022-09-16T02:02:41;97052.41;;;11.52
72336;BMP280;62171;48.446;8.834;2022-09-16T02:05:14;97038.84;;;11.44
72336;BMP280;62171;48.446;8.834;2022-09-16T02:07:44;97032.81;;;11.47
72336;BMP280;62171;48.446;8.834;2022-09-16T02:10:20;97045.47;;;11.61
72336;BMP280;62171;48.446;8.834;2022-09-16T02:12:49;97031.59;;;11.68
72336;BMP280;62171;48.446;8.834;2022-09-16T02:15:17;97023.53;;;11.62
72336;BMP280;62171;48.446;8.834;2022-09-16T02:17:50;97011.47;;;11.68
72336;BMP280;62171;48.446;8.834;2022-09-16T02:20:22;97003.59;;;11.56
72336;BMP280;62171;48.446;8.834;2022-09-16T02:23:04;97006.88;;;11.44
72336;BMP280;62171;48.446;8.834;2022-09-16T02:25:34;97012.16;;;11.40
72336;BMP280;62171;48.446;8.834;2022-09-16T02:28:01;97016.47;;;11.47
72336;BMP280;62171;48.446;8.834;2022-09-16T02:30:28;97015.88;;;11.39
72336;BMP280;62171;48.446;8.834;2022-09-16T02:32:58;97018.47;;;11.39
72336;BMP280;62171;48.446;8.834;2022-09-16T02:35:25;97012.97;;;11.37
72336;BMP280;62171;48.446;8.834;2022-09-16T02:38:01;97019.22;;;11.40
72336;BMP280;62171;48.446;8.834;2022-09-16T02:40:37;97023.16;;;11.48
72336;BMP280;62171;48.446;8.834;2022-09-16T02:43:04;97014.53;;;11.35
72336;BMP280;62171;48.446;8.834;2022-09-16T02:45:47;97016.97;;;11.25
72336;BMP280;62171;48.446;8.834;2022-09-16T02:48:24;97020.84;;;11.17
72336;BMP280;62171;48.446;8.834;2022-09-16T02:51:12;97021.47;;;11.05
72336;BMP280;62171;48.446;8.834;2022-09-16T02:54:00;97015.16;;;11.06
72336;BMP280;62171;48.446;8.834;2022-09-16T02:56:31;97011.72;;;11.09
72336;BMP280;62171;48.446;8.834;2022-09-16T02:58:57;97015.81;;;11.10
72336;BMP280;62171;48.446;8.834;2022-09-16T03:01:23;97012.06;;;11.11
72336;BMP280;62171;48.446;8.834;2022-09-16T03:03:53;97006.06;;;11.14
72336;BMP280;62171;48.446;8.834;2022-09-16T03:06:23;97010.44;;;11.17
72336;BMP280;62171;48.446;8.834;2022-09-16T03:08:50;97012.16;;;11.08
72336;BMP280;62171;48.446;8.834;2022-09-16T03:28:21;97015.31;;;11.31
72336;BMP280;62171;48.446;8.834;2022-09-16T03:33:28;97007.78;;;11.37
72336;BMP280;62171;48.446;8.834;2022-09-16T03:35:58;97011.75;;;11.42
72336;BMP280;62171;48.446;8.834;2022-09-16T03:38:24;97014.38;;;11.42
72336;BMP280;62171;48.446;8.834;2022-09-16T03:40:50;97007.03;;;11.37
72336;BMP280;62171;48.446;8.834;2022-09-16T03:43:16;97007.03;;;11.37
72336;BMP280;62171;48.446;8.834;2022-09-16T03:45:42;97012.00;;;11.47
72336;BMP280;62171;48.446;8.834;2022-09-16T03:48:09;97010.13;;;11.48
72336;BMP280;62171;48.446;8.834;2022-09-16T03:50:35;97001.84;;;11.53
72336;BMP280;62171;48.446;8.834;2022-09-16T03:53:00;97006.44;;;11.61
72336;BMP280;62171;48.446;8.834;2022-09-16T03:55:26;97011.03;;;11.57
72336;BMP280;62171;48.446;8.834;2022-09-16T03:57:52;97006.72;;;11.51
72336;BMP280;62171;48.446;8.834;2022-09-16T04:00:18;96994.31;;;11.55
72336;BMP280;62171;48.446;8.834;2022-09-16T04:02:43;96997.09;;;11.64
72336;BMP280;62171;48.446;8.834;2022-09-16T04:05:08;97004.91;;;11.64
72336;BMP280;62171;48.446;8.834;2022-09-16T04:07:34;96991.25;;;11.60
72336;BMP280;62171;48.446;8.834;2022-09-16T04:10:00;96998.72;;;11.58
72336;BMP280;62171;48.446;8.834;2022-09-16T04:12:26;96990.53;;;11.59
72336;BMP280;62171;48.446;8.834;2022-09-16T04:14:51;96980.34;;;11.65
72336;BMP280;62171;48.446;8.834;2022-09-16T04:17:17;96974.97;;;11.72
72336;BMP280;62171;48.446;8.834;2022-09-16T04:19:42;96982.19;;;11.80
72336;BMP280;62171;48.446;8.834;2022-09-16T04:22:07;96979.19;;;11.82
72336;BMP280;62171;48.446;8.834;2022-09-16T04:24:33;96975.28;;;11.74
72336;BMP280;62171;48.446;8.834;2022-09-16T04:26:59;96975.78;;;11.69
72336;BMP280;62171;48.446;8.834;2022-09-16T04:29:25;96967.97;;;11.69
72336;BMP280;62171;48.446;8.834;2022-09-16T04:31:51;96961.94;;;11.72
72336;BMP280;62171;48.446;8.834;2022-09-16T04:34:17;96973.53;;;11.83
72336;BMP280;62171;48.446;8.834;2022-09-16T04:36:42;96976.81;;;11.87
72336;BMP280;62171;48.446;8.834;2022-09-16T04:39:07;96964.19;;;11.86
72336;BMP280;62171;48.446;8.834;2022-09-16T04:41:33;96967.94;;;11.85
72336;BMP280;62171;48.446;8.834;2022-09-16T04:43:59;96969.50;;;11.82
72336;BMP280;62171;48.446;8.834;2022-09-16T04:46:26;96970.28;;;11.79
72336;BMP280;62171;48.446;8.834;2022-09-16T04:48:53;96973.97;;;11.82
72336;BMP280;62171;48.446;8.834;2022-09-16T04:51:21;96962.09;;;11.81
72336;BMP280;62171;48.446;8.834;2022-09-16T04:53:47;96968.94;;;11.75
72336;BMP280;62171;48.446;8.834;2022-09-16T04:56:16;96977.56;;;11.72
72336;BMP280;62171;48.446;8.834;2022-09-16T04:58:50;96977.72;;;11.81
72336;BMP280;62171;48.446;8.834;2022-09-16T05:01:18;96970.19;;;11.83
72336;BMP280;62171;48.446;8.834;2022-09-16T05:03:49;96958.78;;;11.93
72336;BMP280;62171;48.446;8.834;2022-09-16T05:06:23;96959.78;;;11.83
72336;BMP280;62171;48.446;8.834;2022-09-16T05:08:49;96960.63;;;11.80
72336;BMP280;62171;48.446;8.834;2022-09-16T05:11:20;96951.16;;;11.86
72336;BMP280;62171;48.446;8.834;2022-09-16T05:13:46;96952.94;;;11.89
72336;BMP280;62171;48.446;8.834;2022-09-16T05:16:14;96967.94;;;11.85
72336;BMP280;62171;48.446;8.834;2022-09-16T05:18:41;96967.88;;;11.88
72336;BMP280;62171;48.446;8.834;2022-09-16T05:21:09;96966.28;;;11.91
72336;BMP280;62171;48.446;8.834;2022-09-16T05:23:34;96957.44;;;11.88
72336;BMP280;62171;48.446;8.834;2022-09-16T05:26:05;96965.34;;;11.85
72336;BMP280;62171;48.446;8.834;2022-09-16T05:28:32;96973.25;;;11.81
72336;BMP280;62171;48.446;8.834;2022-09-16T05:33:38;96963.81;;;12.00
72336;BMP280;62171;48.446;8.834;2022-09-16T05:36:08;96964.78;;;12.06
72336;BMP280;62171;48.446;8.834;2022-09-16T05:38:34;96967.38;;;12.06
72336;BMP280;62171;48.446;8.834;2022-09-16T05:41:00;96960.50;;;12.12
72336;BMP280;62171;48.446;8.834;2022-09-16T05:43:26;96982.09;;;12.13
72336;BMP280;62171;48.446;8.834;2022-09-16T05:45:53;96970.63;;;12.10
72336;BMP280;62171;48.446;8.834;2022-09-16T05:48:18;96968.84;;;12.07
72336;BMP280;62171;48.446;8.834;2022-09-16T05:51:10;96969.66;;;12.04
72336;BMP280;62171;48.446;8.834;2022-09-16T05:53:38;96975.59;;;12.04
72336;BMP280;62171;48.446;8.834;2022-09-16T05:56:09;96970.94;;;12.12
72336;BMP280;62171;48.446;8.834;2022-09-16T05:58:35;96967.81;;;12.17
72336;BMP280;62171;48.446;8.834;2022-09-16T06:01:23;96970.00;;;12.19
72336;BMP280;62171;48.446;8.834;2022-09-16T06:03:48;96965.63;;;12.16
72336;BMP280;62171;48.446;8.834;2022-09-16T06:08:47;96969.94;;;12.22
72336;BMP280;62171;48.446;8.834;2022-09-16T06:11:13;96976.69;;;12.20
72336;BMP280;62171;48.446;8.834;2022-09-16T06:13:39;96970.84;;;12.16
72336;BMP280;62171;48.446;8.834;2022-09-16T06:16:05;96966.06;;;12.27
72336;BMP280;62171;48.446;8.834;2022-09-16T06:18:31;96968.66;;;12.27
72336;BMP280;62171;48.446;8.834;2022-09-16T06:21:02;96968.09;;;12.35
72336;BMP280;62171;48.446;8.834;2022-09-16T06:23:27;96965.06;;;12.37
72336;BMP280;62171;48.446;8.834;2022-09-16T06:26:07;96961.41;;;12.34
72336;BMP280;62171;48.446;8.834;2022-09-16T06:28:33;96965.78;;;12.37
72336;BMP280;62171;48.446;8.834;2022-09-16T06:31:04;96959.31;;;12.42
72336;BMP280;62171;48.446;8.834;2022-09-16T06:33:30;96963.19;;;12.50
72336;BMP280;62171;48.446;8.834;2022-09-16T06:35:55;96957.44;;;12.55
72336;BMP280;62171;48.446;8.834;2022-09-16T06:38:22;96965.94;;;12.59
72336;BMP280;62171;48.446;8.834;2022-09-16T06:40:48;96966.22;;;12.61
72336;BMP280;62171;48.446;8.834;2022-09-16T06:43:14;96955.19;;;12.69
72336;BMP280;62171;48.446;8.834;2022-09-16T06:45:40;96963.50;;;12.77
72336;BMP280;62171;48.446;8.834;2022-09-16T06:48:05;96963.94;;;12.75
72336;BMP280;62171;48.446;8.834;2022-09-16T06:50:30;96964.03;;;12.59
72336;BMP280;62171;48.446;8.834;2022-09-16T06:52:56;96966.84;;;12.52
72336;BMP280;62171;48.446;8.834;2022-09-16T06:55:22;96958.72;;;12.50
72336;BMP280;62171;48.446;8.834;2022-09-16T06:57:47;96963.59;;;12.61
72336;BMP280;62171;48.446;8.834;2022-09-16T07:00:13;96972.59;;;12.60
72336;BMP280;62171;48.446;8.834;2022-09-16T07:02:38;96974.03;;;12.61
72336;BMP280;62171;48.446;8.834;2022-09-16T07:05:04;96973.53;;;12.78
72336;BMP280;62171;48.446;8.834;2022-09-16T07:07:30;96979.97;;;12.86
72336;BMP280;62171;48.446;8.834;2022-09-16T07:10:00;96973.53;;;12.91
72336;BMP280;62171;48.446;8.834;2022-09-16T07:12:27;96986.03;;;12.83
72336;BMP280;62171;48.446;8.834;2022-09-16T07:14:52;96986.25;;;12.76
72336;BMP280;62171;48.446;8.834;2022-09-16T07:17:17;96989.38;;;12.71
72336;BMP280;62171;48.446;8.834;2022-09-16T07:19:43;96993.88;;;12.83
72336;BMP280;62171;48.446;8.834;2022-09-16T07:22:08;96995.81;;;12.79
72336;BMP280;62171;48.446;8.834;2022-09-16T07:24:35;97000.34;;;12.92
72336;BMP280;62171;48.446;8.834;2022-09-16T07:27:00;96993.22;;;12.79
72336;BMP280;62171;48.446;8.834;2022-09-16T07:29:26;96990.88;;;12.72
72336;BMP280;62171;48.446;8.834;2022-09-16T07:31:51;96996.28;;;12.65
72336;BMP280;62171;48.446;8.834;2022-09-16T07:34:17;96995.75;;;12.70
72336;BMP280;62171;48.446;8.834;2022-09-16T07:36:44;97003.25;;;12.56
72336;BMP280;62171;48.446;8.834;2022-09-16T07:39:11;96996.25;;;12.53
72336;BMP280;62171;48.446;8.834;2022-09-16T07:41:39;97008.63;;;12.49
72336;BMP280;62171;48.446;8.834;2022-09-16T07:44:06;97008.41;;;12.31
72336;BMP280;62171;48.446;8.834;2022-09-16T07:46:34;97012.16;;;12.30
72336;BMP280;62171;48.446;8.834;2022-09-16T07:49:01;97017.66;;;12.19
72336;BMP280;62171;48.446;8.834;2022-09-16T07:51:27;97026.91;;;12.20
72336;BMP280;62171;48.446;8.834;2022-09-16T07:53:58;97032.31;;;12.13
72336;BMP280;62171;48.446;8.834;2022-09-16T07:56:25;97035.03;;;12.10
72336;BMP280;62171;48.446;8.834;2022-09-16T07:58:53;97038.66;;;12.12
72336;BMP280;62171;48.446;8.834;2022-09-16T08:01:19;97042.16;;;12.22
72336;BMP280;62171;48.446;8.834;2022-09-16T08:03:45;97039.94;;;12.20
72336;BMP280;62171;48.446;8.834;2022-09-16T08:06:13;97045.34;;;12.13
72336;BMP280;62171;48.446;8.834;2022-09-16T08:08:39;97041.41;;;12.21
72336;BMP280;62171;48.446;8.834;2022-09-16T08:11:05;97040.25;;;12.38
72336;BMP280;62171;48.446;8.834;2022-09-16T08:13:32;97051.56;;;12.32
72336;BMP280;62171;48.446;8.834;2022-09-16T08:16:04;97059.31;;;12.48
72336;BMP280;62171;48.446;8.834;2022-09-16T08:18:29;97067.53;;;12.46
72336;BMP280;62171;48.446;8.834;2022-09-16T08:20:55;97068.38;;;12.43
72336;BMP280;62171;48.446;8.834;2022-09-16T08:23:20;97078.88;;;12.40
72336;BMP280;62171;48.446;8.834;2022-09-16T08:25:46;97083.13;;;12.34
72336;BMP280;62171;48.446;8.834;2022-09-16T08:28:13;97086.25;;;12.29
72336;BMP280;62171;48.446;8.834;2022-09-16T08:30:39;97082.91;;;12.28
72336;BMP280;62171;48.446;8.834;2022-09-16T08:33:04;97086.09;;;12.48
72336;BMP280;62171;48.446;8.834;2022-09-16T08:35:30;97087.00;;;12.70
72336;BMP280;62171;48.446;8.834;2022-09-16T08:37:55;97076.59;;;12.96
72336;BMP280;62171;48.446;8.834;2022-09-16T08:40:22;97068.88;;;13.05
72336;BMP280;62171;48.446;8.834;2022-09-16T08:43:21;97079.22;;;13.08
72336;BMP280;62171;48.446;8.834;2022-09-16T08:45:55;97089.63;;;12.96
72336;BMP280;62171;48.446;8.834;2022-09-16T08:48:48;97094.53;;;12.94
72336;BMP280;62171;48.446;8.834;2022-09-16T08:51:17;97093.72;;;12.97
72336;BMP280;62171;48.446;8.834;2022-09-16T08:53:59;97093.53;;;12.91
72336;BMP280;62171;48.446;8.834;2022-09-16T08:56:27;97096.13;;;12.91
72336;BMP280;62171;48.446;8.834;2022-09-16T08:58:56;97090.06;;;13.07
72336;BMP280;62171;48.446;8.834;2022-09-16T09:01:38;97090.19;;;13.41
72336;BMP280;62171;48.446;8.834;2022-09-16T09:04:05;97091.91;;;13.82
72336;BMP280;62171;48.446;8.834;2022-09-16T09:09:30;97092.78;;;14.43
72336;BMP280;62171;48.446;8.834;2022-09-16T09:14:42;97096.50;;;14.33
72336;BMP280;62171;48.446;8.834;2022-09-16T09:25:33;97084.72;;;13.95
72336;BMP280;62171;48.446;8.834;2022-09-16T09:28:28;97081.09;;;13.92
72336;BMP280;62171;48.446;8.834;2022-09-16T09:31:09;97089.13;;;13.98
72336;BMP280;62171;48.446;8.834;2022-09-16T09:36:56;97085.66;;;14.01
72336;BMP280;62171;48.446;8.834;2022-09-16T09:45:06;97093.44;;;13.79
72336;BMP280;62171;48.446;8.834;2022-09-16T09:47:42;97076.94;;;13.82
72336;BMP280;62171;48.446;8.834;2022-09-16T09:50:19;97073.25;;;13.92
72336;BMP280;62171;48.446;8.834;2022-09-16T09:58:47;97090.53;;;14.85
72336;BMP280;62171;48.446;8.834;2022-09-16T10:01:15;97087.25;;;14.94
72336;BMP280;62171;48.446;8.834;2022-09-16T10:03:41;97089.66;;;15.28
72336;BMP280;62171;48.446;8.834;2022-09-16T10:06:09;97083.94;;;15.78
72336;BMP280;62171;48.446;8.834;2022-09-16T10:08:41;97090.13;;;16.53
72336;BMP280;62171;48.446;8.834;2022-09-16T10:11:23;97090.25;;;16.59
72336;BMP280;62171;48.446;8.834;2022-09-16T10:13:55;97084.56;;;16.51
72336;BMP280;62171;48.446;8.834;2022-09-16T10:16:25;97090.59;;;16.34
72336;BMP280;62171;48.446;8.834;2022-09-16T10:18:57;97087.88;;;15.92
72336;BMP280;62171;48.446;8.834;2022-09-16T10:21:39;97086.69;;;15.48
72336;BMP280;62171;48.446;8.834;2022-09-16T10:24:26;97082.50;;;15.10
72336;BMP280;62171;48.446;8.834;2022-09-16T10:26:53;97078.94;;;14.95
72336;BMP280;62171;48.446;8.834;2022-09-16T10:29:18;97081.94;;;14.76
72336;BMP280;62171;48.446;8.834;2022-09-16T10:31:44;97087.19;;;14.76
72336;BMP280;62171;48.446;8.834;2022-09-16T10:34:30;97076.97;;;14.78
72336;BMP280;62171;48.446;8.834;2022-09-16T10:39:38;97086.03;;;14.86
72336;BMP280;62171;48.446;8.834;2022-09-16T10:42:20;97079.34;;;14.85
72336;BMP280;62171;48.446;8.834;2022-09-16T10:44:46;97083.56;;;14.82
72336;BMP280;62171;48.446;8.834;2022-09-16T10:47:19;97080.78;;;14.77
72336;BMP280;62171;48.446;8.834;2022-09-16T10:49:51;97091.97;;;14.56
72336;BMP280;62171;48.446;8.834;2022-09-16T10:52:24;97098.34;;;14.55
72336;BMP280;62171;48.446;8.834;2022-09-16T10:54:51;97094.66;;;14.43
72336;BMP280;62171;48.446;8.834;2022-09-16T11:05:32;97104.44;;;14.52
72336;BMP280;62171;48.446;8.834;2022-09-16T11:24:25;97096.84;;;15.46
72336;BMP280;62171;48.446;8.834;2022-09-16T11:52:54;97096.44;;;16.19
72336;BMP280;62171;48.446;8.834;2022-09-16T11:58:50;97088.22;;;16.54
72336;BMP280;62171;48.446;8.834;2022-09-16T12:06:32;97101.31;;;17.66
72336;BMP280;62171;48.446;8.834;2022-09-16T12:09:13;97082.47;;;17.30
72336;BMP280;62171;48.446;8.834;2022-09-16T12:11:50;97087.19;;;16.93
72336;BMP280;62171;48.446;8.834;2022-09-16T12:14:20;97085.81;;;17.06
72336;BMP280;62171;48.446;8.834;2022-09-16T12:16:57;97084.75;;;17.13
72336;BMP280;62171;48.446;8.834;2022-09-16T12:19:30;97086.53;;;17.16
72336;BMP280;62171;48.446;8.834;2022-09-16T12:22:08;97085.38;;;18.37
72336;BMP280;62171;48.446;8.834;2022-09-16T12:24:41;97097.19;;;19.11
72336;BMP280;62171;48.446;8.834;2022-09-16T12:30:18;97085.97;;;18.61
72336;BMP280;62171;48.446;8.834;2022-09-16T12:33:05;97083.00;;;18.10
72336;BMP280;62171;48.446;8.834;2022-09-16T12:35:37;97078.59;;;17.63
72336;BMP280;62171;48.446;8.834;2022-09-16T12:38:03;97089.75;;;17.11
72336;BMP280;62171;48.446;8.834;2022-09-16T12:48:40;97084.78;;;15.93
72336;BMP280;62171;48.446;8.834;2022-09-16T12:53:58;97080.31;;;15.85
72336;BMP280;62171;48.446;8.834;2022-09-16T12:57:33;97082.94;;;16.03
72336;BMP280;62171;48.446;8.834;2022-09-16T13:03:20;97080.38;;;16.45
72336;BMP280;62171;48.446;8.834;2022-09-16T13:05:49;97080.84;;;16.85
72336;BMP280;62171;48.446;8.834;2022-09-16T13:08:33;97084.09;;;16.62
72336;BMP280;62171;48.446;8.834;2022-09-16T13:11:02;97077.41;;;16.61
72336;BMP280;62171;48.446;8.834;2022-09-16T13:13:38;97084.75;;;17.13
72336;BMP280;62171;48.446;8.834;2022-09-16T13:16:06;97074.53;;;17.77
72336;BMP280;62171;48.446;8.834;2022-09-16T13:18:42;97078.84;;;18.18
72336;BMP280;62171;48.446;8.834;2022-09-16T13:23:57;97111.25;;;25.66
72336;BMP280;62171;48.446;8.834;2022-09-16T13:26:24;97105.97;;;28.27
72336;BMP280;62171;48.446;8.834;2022-09-16T13:28:50;97098.41;;;29.27
72336;BMP280;62171;48.446;8.834;2022-09-16T13:31:18;97108.50;;;32.95
72336;BMP280;62171;48.446;8.834;2022-09-16T13:34:13;97103.97;;;32.71
72336;BMP280;62171;48.446;8.834;2022-09-16T13:36:39;97096.47;;;31.48
72336;BMP280;62171;48.446;8.834;2022-09-16T13:39:11;97101.78;;;32.06
72336;BMP280;62171;48.446;8.834;2022-09-16T13:41:39;97097.03;;;31.63
72336;BMP280;62171;48.446;8.834;2022-09-16T13:46:50;97075.88;;;29.90
72336;BMP280;62171;48.446;8.834;2022-09-16T13:49:21;97073.81;;;28.12
72336;BMP280;62171;48.446;8.834;2022-09-16T13:51:49;97080.44;;;26.41
72336;BMP280;62171;48.446;8.834;2022-09-16T13:54:25;97071.25;;;27.99
72336;BMP280;62171;48.446;8.834;2022-09-16T14:08:54;97084.69;;;28.50
72336;BMP280;62171;48.446;8.834;2022-09-16T14:11:29;97076.00;;;27.24
72336;BMP280;62171;48.446;8.834;2022-09-16T14:14:02;97066.84;;;27.12
72336;BMP280;62171;48.446;8.834;2022-09-16T14:16:30;97078.16;;;26.45
72336;BMP280;62171;48.446;8.834;2022-09-16T14:19:03;97092.66;;;26.83
72336;BMP280;62171;48.446;8.834;2022-09-16T14:21:30;97070.91;;;29.64
72336;BMP280;62171;48.446;8.834;2022-09-16T14:24:06;97083.28;;;30.22
72336;BMP280;62171;48.446;8.834;2022-09-16T14:26:32;97060.53;;;28.85
72336;BMP280;62171;48.446;8.834;2022-09-16T14:29:03;97065.03;;;26.60
72336;BMP280;62171;48.446;8.834;2022-09-16T14:31:30;97056.56;;;25.01
72336;BMP280;62171;48.446;8.834;2022-09-16T14:33:59;97061.00;;;23.14
72336;BMP280;62171;48.446;8.834;2022-09-16T14:36:31;97049.88;;;22.53
72336;BMP280;62171;48.446;8.834;2022-09-16T14:39:02;97063.91;;;21.59
72336;BMP280;62171;48.446;8.834;2022-09-16T14:41:33;97053.41;;;20.95
72336;BMP280;62171;48.446;8.834;2022-09-16T14:44:07;97051.66;;;19.76
72336;BMP280;62171;48.446;8.834;2022-09-16T14:46:40;97051.94;;;19.33
72336;BMP280;62171;48.446;8.834;2022-09-16T14:49:09;97038.78;;;19.13
72336;BMP280;62171;48.446;8.834;2022-09-16T14:51:35;97056.16;;;18.70
72336;BMP280;62171;48.446;8.834;2022-09-16T14:54:01;97042.81;;;18.39
72336;BMP280;62171;48.446;8.834;2022-09-16T14:56:27;97045.38;;;18.19
72336;BMP280;62171;48.446;8.834;2022-09-16T14:58:53;97042.28;;;18.20
72336;BMP280;62171;48.446;8.834;2022-09-16T15:01:25;97045.47;;;18.24
72336;BMP280;62171;48.446;8.834;2022-09-16T15:06:25;97042.81;;;17.95
72336;BMP280;62171;48.446;8.834;2022-09-16T15:08:53;97034.16;;;17.51
72336;BMP280;62171;48.446;8.834;2022-09-16T15:11:28;97041.13;;;17.39
72336;BMP280;62171;48.446;8.834;2022-09-16T15:13:55;97048.16;;;17.33
72336;BMP280;62171;48.446;8.834;2022-09-16T15:16:22;97038.56;;;17.30
72336;BMP280;62171;48.446;8.834;2022-09-16T15:18:52;97035.59;;;17.37
72336;BMP280;62171;48.446;8.834;2022-09-16T15:21:24;97040.72;;;17.32
72336;BMP280;62171;48.446;8.834;2022-09-16T15:23:53;97036.47;;;18.16
72336;BMP280;62171;48.446;8.834;2022-09-16T15:26:22;97046.00;;;19.18
72336;BMP280;62171;48.446;8.834;2022-09-16T15:31:27;97047.63;;;18.75
72336;BMP280;62171;48.446;8.834;2022-09-16T15:33:54;97048.00;;;19.68
72336;BMP280;62171;48.446;8.834;2022-09-16T15:36:36;97058.19;;;21.77
72336;BMP280;62171;48.446;8.834;2022-09-16T15:39:03;97039.56;;;22.43
72336;BMP280;62171;48.446;8.834;2022-09-16T15:41:28;97040.56;;;22.18
72336;BMP280;62171;48.446;8.834;2022-09-16T15:43:57;97039.75;;;21.02
72336;BMP280;62171;48.446;8.834;2022-09-16T15:46:23;97034.91;;;20.10
72336;BMP280;62171;48.446;8.834;2022-09-16T15:48:50;97042.59;;;19.57
72336;BMP280;62171;48.446;8.834;2022-09-16T15:51:27;97032.25;;;19.08
72336;BMP280;62171;48.446;8.834;2022-09-16T15:53:59;97030.84;;;18.72
72336;BMP280;62171;48.446;8.834;2022-09-16T15:59:44;97020.56;;;17.38
72336;BMP280;62171;48.446;8.834;2022-09-16T16:02:38;97035.09;;;17.00
72336;BMP280;62171;48.446;8.834;2022-09-16T16:05:14;97032.69;;;16.88
72336;BMP280;62171;48.446;8.834;2022-09-16T16:07:43;97034.25;;;16.94
72336;BMP280;62171;48.446;8.834;2022-09-16T16:10:19;97040.56;;;16.88
72336;BMP280;62171;48.446;8.834;2022-09-16T16:12:49;97032.00;;;16.78
72336;BMP280;62171;48.446;8.834;2022-09-16T16:15:17;97036.72;;;16.65
72336;BMP280;62171;48.446;8.834;2022-09-16T16:17:44;97032.34;;;16.95
72336;BMP280;62171;48.446;8.834;2022-09-16T16:20:11;97042.50;;;17.02
72336;BMP280;62171;48.446;8.834;2022-09-16T16:22:38;97045.13;;;17.02
72336;BMP280;62171;48.446;8.834;2022-09-16T16:25:05;97041.16;;;16.83
72336;BMP280;62171;48.446;8.834;2022-09-16T16:27:31;97042.56;;;16.69
72336;BMP280;62171;48.446;8.834;2022-09-16T16:29:56;97048.31;;;16.50
72336;BMP280;62171;48.446;8.834;2022-09-16T16:32:22;97050.53;;;16.33
72336;BMP280;62171;48.446;8.834;2022-09-16T16:34:48;97050.44;;;16.18
72336;BMP280;62171;48.446;8.834;2022-09-16T16:37:18;97057.72;;;16.05
72336;BMP280;62171;48.446;8.834;2022-09-16T16:39:44;97051.00;;;15.95
72336;BMP280;62171;48.446;8.834;2022-09-16T16:42:13;97055.38;;;15.89
72336;BMP280;62171;48.446;8.834;2022-09-16T16:44:39;97060.66;;;15.80
72336;BMP280;62171;48.446;8.834;2022-09-16T16:47:06;97055.97;;;15.57
72336;BMP280;62171;48.446;8.834;2022-09-16T16:49:32;97059.47;;;15.54
72336;BMP280;62171;48.446;8.834;2022-09-16T16:51:58;97058.28;;;15.46
72336;BMP280;62171;48.446;8.834;2022-09-16T16:54:24;97059.44;;;15.36
72336;BMP280;62171;48.446;8.834;2022-09-16T16:56:50;97063.34;;;15.22
72336;BMP280;62171;48.446;8.834;2022-09-16T16:59:16;97064.19;;;15.10
72336;BMP280;62171;48.446;8.834;2022-09-16T17:01:43;97058.50;;;15.03
72336;BMP280;62171;48.446;8.834;2022-09-16T17:04:09;97062.81;;;14.88
72336;BMP280;62171;48.446;8.834;2022-09-16T17:06:35;97062.66;;;14.61
72336;BMP280;62171;48.446;8.834;2022-09-16T17:09:03;97060.00;;;14.52
72336;BMP280;62171;48.446;8.834;2022-09-16T17:11:29;97067.00;;;14.33
72336;BMP280;62171;48.446;8.834;2022-09-16T17:14:01;97066.72;;;14.09
72336;BMP280;62171;48.446;8.834;2022-09-16T17:16:28;97060.78;;;13.96
72336;BMP280;62171;48.446;8.834;2022-09-16T17:18:54;97059.81;;;13.81
72336;BMP280;62171;48.446;8.834;2022-09-16T17:21:25;97053.72;;;13.62
72336;BMP280;62171;48.446;8.834;2022-09-16T17:23:51;97066.34;;;13.39
72336;BMP280;62171;48.446;8.834;2022-09-16T17:26:17;97062.31;;;13.25
72336;BMP280;62171;48.446;8.834;2022-09-16T17:28:44;97057.59;;;13.08
72336;BMP280;62171;48.446;8.834;2022-09-16T17:31:13;97070.06;;;12.91
72336;BMP280;62171;48.446;8.834;2022-09-16T17:33:39;97072.72;;;12.75